sensor_id;sensor_type;location;lat;lon;timestamp;P1;durP1;ratioP1;P2;durP2;ratioP2
17818;SDS011;9034;50.284;19.310;2024-01-16T00:00:36;13.90;;;9.60;;
17818;SDS011;9034;50.284;19.310;2024-01-16T00:01:41;14.27;;;9.82;;
17818;SDS011;9034;50.284;19.310;2024-01-16T00:02:43;18.58;;;9.43;;
17818;SDS011;9034;50.284;19.310;2024-01-16T00:03:46;14.73;;;10.25;;
17818;SDS011;9034;50.284;19.310;2024-01-16T00:04:48;17.27;;;10.77;;
17818;SDS011;9034;50.284;19.310;2024-01-16T00:05:51;16.77;;;10.27;;
17818;SDS011;9034;50.284;19.310;2024-01-16T00:06:55;16.23;;;10.57;;
17818;SDS011;9034;50.284;19.310;2024-01-16T00:07:58;15.82;;;8.95;;
17818;SDS011;9034;50.284;19.310;2024-01-16T00:09:01;13.50;;;8.23;;
17818;SDS011;9034;50.284;19.310;2024-01-16T00:10:06;14.52;;;8.70;;
17818;SDS011;9034;50.284;19.310;2024-01-16T00:11:09;15.02;;;9.38;;
17818;SDS011;9034;50.284;19.310;2024-01-16T00:12:11;15.45;;;9.63;;
17818;SDS011;9034;50.284;19.310;2024-01-16T00:13:13;13.00;;;8.20;;
17818;SDS011;9034;50.284;19.310;2024-01-16T00:14:16;13.88;;;8.98;;
17818;SDS011;9034;50.284;19.310;2024-01-16T00:15:18;15.25;;;8.98;;
17818;SDS011;9034;50.284;19.310;2024-01-16T00:16:21;12.02;;;8.80;;
17818;SDS011;9034;50.284;19.310;2024-01-16T00:17:23;13.88;;;9.02;;
17818;SDS011;9034;50.284;19.310;2024-01-16T00:18:26;15.73;;;9.23;;
17818;SDS011;9034;50.284;19.310;2024-01-16T00:19:28;15.25;;;9.50;;
17818;SDS011;9034;50.284;19.310;2024-01-16T00:20:31;14.90;;;9.02;;
17818;SDS011;9034;50.284;19.310;2024-01-16T00:21:37;12.40;;;8.25;;
17818;SDS011;9034;50.284;19.310;2024-01-16T00:22:41;11.18;;;8.15;;
17818;SDS011;9034;50.284;19.310;2024-01-16T00:23:44;12.75;;;8.57;;
17818;SDS011;9034;50.284;19.310;2024-01-16T00:24:46;10.88;;;8.43;;
17818;SDS011;9034;50.284;19.310;2024-01-16T00:25:49;14.02;;;8.40;;
17818;SDS011;9034;50.284;19.310;2024-01-16T00:26:51;14.57;;;8.20;;
17818;SDS011;9034;50.284;19.310;2024-01-16T00:27:54;14.02;;;8.95;;
17818;SDS011;9034;50.284;19.310;2024-01-16T00:28:56;15.02;;;9.32;;
17818;SDS011;9034;50.284;19.310;2024-01-16T00:29:59;14.68;;;9.40;;
17818;SDS011;9034;50.284;19.310;2024-01-16T00:31:01;15.50;;;9.57;;
17818;SDS011;9034;50.284;19.310;2024-01-16T00:32:04;14.13;;;8.70;;
17818;SDS011;9034;50.284;19.310;2024-01-16T00:33:06;13.63;;;8.77;;
17818;SDS011;9034;50.284;19.310;2024-01-16T00:34:09;14.80;;;8.80;;
17818;SDS011;9034;50.284;19.310;2024-01-16T00:35:11;15.88;;;9.43;;
17818;SDS011;9034;50.284;19.310;2024-01-16T00:36:14;16.48;;;8.93;;
17818;SDS011;9034;50.284;19.310;2024-01-16T00:37:16;13.27;;;8.80;;
17818;SDS011;9034;50.284;19.310;2024-01-16T00:38:20;11.88;;;8.30;;
17818;SDS011;9034;50.284;19.310;2024-01-16T00:39:23;16.25;;;10.02;;
17818;SDS011;9034;50.284;19.310;2024-01-16T00:40:26;14.65;;;10.27;;
17818;SDS011;9034;50.284;19.310;2024-01-16T00:41:28;15.85;;;10.30;;
17818;SDS011;9034;50.284;19.310;2024-01-16T00:42:31;15.35;;;9.30;;
17818;SDS011;9034;50.284;19.310;2024-01-16T00:43:33;14.65;;;9.40;;
17818;SDS011;9034;50.284;19.310;2024-01-16T00:44:37;15.25;;;10.00;;
17818;SDS011;9034;50.284;19.310;2024-01-16T00:45:39;15.88;;;10.07;;
17818;SDS011;9034;50.284;19.310;2024-01-16T00:46:43;17.55;;;10.75;;
17818;SDS011;9034;50.284;19.310;2024-01-16T00:47:45;15.10;;;10.13;;
17818;SDS011;9034;50.284;19.310;2024-01-16T00:48:48;15.05;;;10.23;;
17818;SDS011;9034;50.284;19.310;2024-01-16T00:49:50;15.00;;;10.75;;
17818;SDS011;9034;50.284;19.310;2024-01-16T00:50:54;14.40;;;10.88;;
17818;SDS011;9034;50.284;19.310;2024-01-16T00:51:56;13.07;;;9.80;;
17818;SDS011;9034;50.284;19.310;2024-01-16T00:52:59;19.35;;;10.85;;
17818;SDS011;9034;50.284;19.310;2024-01-16T00:54:02;16.92;;;10.98;;
17818;SDS011;9034;50.284;19.310;2024-01-16T00:55:07;15.85;;;10.48;;
17818;SDS011;9034;50.284;19.310;2024-01-16T00:56:10;17.98;;;11.13;;
17818;SDS011;9034;50.284;19.310;2024-01-16T00:57:15;18.02;;;12.30;;
17818;SDS011;9034;50.284;19.310;2024-01-16T00:58:21;21.15;;;13.57;;
17818;SDS011;9034;50.284;19.310;2024-01-16T00:59:24;14.77;;;10.02;;
17818;SDS011;9034;50.284;19.310;2024-01-16T01:00:26;15.75;;;10.18;;
17818;SDS011;9034;50.284;19.310;2024-01-16T01:01:31;18.48;;;11.63;;
17818;SDS011;9034;50.284;19.310;2024-01-16T01:02:33;16.48;;;11.50;;
17818;SDS011;9034;50.284;19.310;2024-01-16T01:03:36;15.35;;;10.40;;
17818;SDS011;9034;50.284;19.310;2024-01-16T01:04:38;14.23;;;10.73;;
17818;SDS011;9034;50.284;19.310;2024-01-16T01:05:42;14.10;;;10.60;;
17818;SDS011;9034;50.284;19.310;2024-01-16T01:06:44;18.20;;;11.25;;
17818;SDS011;9034;50.284;19.310;2024-01-16T01:07:47;16.27;;;11.25;;
17818;SDS011;9034;50.284;19.310;2024-01-16T01:08:49;16.75;;;11.30;;
17818;SDS011;9034;50.284;19.310;2024-01-16T01:09:54;13.07;;;9.77;;
17818;SDS011;9034;50.284;19.310;2024-01-16T01:10:56;14.98;;;10.40;;
17818;SDS011;9034;50.284;19.310;2024-01-16T01:11:59;16.85;;;10.27;;
17818;SDS011;9034;50.284;19.310;2024-01-16T01:13:01;16.63;;;10.63;;
17818;SDS011;9034;50.284;19.310;2024-01-16T01:14:04;17.25;;;11.07;;
17818;SDS011;9034;50.284;19.310;2024-01-16T01:15:06;18.58;;;11.15;;
17818;SDS011;9034;50.284;19.310;2024-01-16T01:16:09;14.52;;;10.45;;
17818;SDS011;9034;50.284;19.310;2024-01-16T01:17:12;15.88;;;9.70;;
17818;SDS011;9034;50.284;19.310;2024-01-16T01:18:14;13.63;;;10.38;;
17818;SDS011;9034;50.284;19.310;2024-01-16T01:19:17;15.13;;;10.57;;
17818;SDS011;9034;50.284;19.310;2024-01-16T01:20:19;17.27;;;10.73;;
17818;SDS011;9034;50.284;19.310;2024-01-16T01:21:22;14.73;;;10.20;;
17818;SDS011;9034;50.284;19.310;2024-01-16T01:22:24;15.32;;;10.25;;
17818;SDS011;9034;50.284;19.310;2024-01-16T01:23:27;21.35;;;10.75;;
17818;SDS011;9034;50.284;19.310;2024-01-16T01:24:29;16.33;;;9.20;;
17818;SDS011;9034;50.284;19.310;2024-01-16T01:25:34;16.35;;;10.15;;
17818;SDS011;9034;50.284;19.310;2024-01-16T01:26:36;15.85;;;9.23;;
17818;SDS011;9034;50.284;19.310;2024-01-16T01:27:39;15.05;;;9.77;;
17818;SDS011;9034;50.284;19.310;2024-01-16T01:28:41;17.58;;;9.57;;
17818;SDS011;9034;50.284;19.310;2024-01-16T01:29:44;16.15;;;9.95;;
17818;SDS011;9034;50.284;19.310;2024-01-16T01:30:46;14.75;;;9.88;;
17818;SDS011;9034;50.284;19.310;2024-01-16T01:31:49;14.02;;;9.10;;
17818;SDS011;9034;50.284;19.310;2024-01-16T01:32:51;13.98;;;9.25;;
17818;SDS011;9034;50.284;19.310;2024-01-16T01:33:54;14.20;;;9.60;;
17818;SDS011;9034;50.284;19.310;2024-01-16T01:34:56;13.20;;;9.23;;
17818;SDS011;9034;50.284;19.310;2024-01-16T01:35:59;17.10;;;10.00;;
17818;SDS011;9034;50.284;19.310;2024-01-16T01:37:01;13.05;;;8.80;;
17818;SDS011;9034;50.284;19.310;2024-01-16T01:38:04;14.02;;;8.45;;
17818;SDS011;9034;50.284;19.310;2024-01-16T01:39:09;14.05;;;9.02;;
17818;SDS011;9034;50.284;19.310;2024-01-16T01:40:13;15.35;;;8.73;;
17818;SDS011;9034;50.284;19.310;2024-01-16T01:41:18;13.10;;;8.38;;
17818;SDS011;9034;50.284;19.310;2024-01-16T01:42:21;15.07;;;9.05;;
17818;SDS011;9034;50.284;19.310;2024-01-16T01:43:24;12.63;;;9.15;;
17818;SDS011;9034;50.284;19.310;2024-01-16T01:44:26;13.30;;;8.90;;
17818;SDS011;9034;50.284;19.310;2024-01-16T01:45:29;14.20;;;8.40;;
17818;SDS011;9034;50.284;19.310;2024-01-16T01:46:31;11.77;;;8.07;;
17818;SDS011;9034;50.284;19.310;2024-01-16T01:47:34;16.42;;;8.77;;
17818;SDS011;9034;50.284;19.310;2024-01-16T01:48:37;14.23;;;9.43;;
17818;SDS011;9034;50.284;19.310;2024-01-16T01:49:41;13.30;;;8.20;;
17818;SDS011;9034;50.284;19.310;2024-01-16T01:50:43;11.98;;;8.50;;
17818;SDS011;9034;50.284;19.310;2024-01-16T01:51:46;11.70;;;8.30;;
17818;SDS011;9034;50.284;19.310;2024-01-16T01:52:48;13.77;;;8.25;;
17818;SDS011;9034;50.284;19.310;2024-01-16T01:53:51;11.45;;;7.70;;
17818;SDS011;9034;50.284;19.310;2024-01-16T01:54:54;12.75;;;8.23;;
17818;SDS011;9034;50.284;19.310;2024-01-16T01:55:57;14.27;;;8.23;;
17818;SDS011;9034;50.284;19.310;2024-01-16T01:57:00;13.43;;;7.63;;
17818;SDS011;9034;50.284;19.310;2024-01-16T01:58:03;11.85;;;8.10;;
17818;SDS011;9034;50.284;19.310;2024-01-16T01:59:05;11.45;;;8.13;;
17818;SDS011;9034;50.284;19.310;2024-01-16T02:00:09;12.55;;;8.80;;
17818;SDS011;9034;50.284;19.310;2024-01-16T02:01:15;11.65;;;8.05;;
17818;SDS011;9034;50.284;19.310;2024-01-16T02:02:19;12.35;;;8.40;;
17818;SDS011;9034;50.284;19.310;2024-01-16T02:03:22;12.63;;;8.30;;
17818;SDS011;9034;50.284;19.310;2024-01-16T02:04:27;12.20;;;7.82;;
17818;SDS011;9034;50.284;19.310;2024-01-16T02:05:30;11.50;;;8.52;;
17818;SDS011;9034;50.284;19.310;2024-01-16T02:06:33;12.00;;;8.07;;
17818;SDS011;9034;50.284;19.310;2024-01-16T02:07:35;11.55;;;8.38;;
17818;SDS011;9034;50.284;19.310;2024-01-16T02:08:38;15.80;;;8.80;;
17818;SDS011;9034;50.284;19.310;2024-01-16T02:09:41;15.07;;;9.27;;
17818;SDS011;9034;50.284;19.310;2024-01-16T02:10:44;17.02;;;9.30;;
17818;SDS011;9034;50.284;19.310;2024-01-16T02:11:49;14.35;;;9.05;;
17818;SDS011;9034;50.284;19.310;2024-01-16T02:12:53;12.77;;;9.13;;
17818;SDS011;9034;50.284;19.310;2024-01-16T02:13:55;14.55;;;8.68;;
17818;SDS011;9034;50.284;19.310;2024-01-16T02:14:58;13.57;;;8.55;;
17818;SDS011;9034;50.284;19.310;2024-01-16T02:16:00;13.38;;;9.25;;
17818;SDS011;9034;50.284;19.310;2024-01-16T02:17:04;13.90;;;9.43;;
17818;SDS011;9034;50.284;19.310;2024-01-16T02:18:07;15.20;;;9.60;;
17818;SDS011;9034;50.284;19.310;2024-01-16T02:19:10;12.88;;;8.75;;
17818;SDS011;9034;50.284;19.310;2024-01-16T02:20:13;12.57;;;8.45;;
17818;SDS011;9034;50.284;19.310;2024-01-16T02:21:17;13.68;;;9.60;;
17818;SDS011;9034;50.284;19.310;2024-01-16T02:22:20;14.23;;;9.98;;
17818;SDS011;9034;50.284;19.310;2024-01-16T02:23:25;12.00;;;8.68;;
17818;SDS011;9034;50.284;19.310;2024-01-16T02:24:28;15.10;;;9.10;;
17818;SDS011;9034;50.284;19.310;2024-01-16T02:25:31;14.32;;;9.48;;
17818;SDS011;9034;50.284;19.310;2024-01-16T02:26:33;13.82;;;9.20;;
17818;SDS011;9034;50.284;19.310;2024-01-16T02:27:35;17.50;;;9.68;;
17818;SDS011;9034;50.284;19.310;2024-01-16T02:28:38;15.80;;;10.48;;
17818;SDS011;9034;50.284;19.310;2024-01-16T02:29:40;14.32;;;10.13;;
17818;SDS011;9034;50.284;19.310;2024-01-16T02:30:43;16.98;;;10.30;;
17818;SDS011;9034;50.284;19.310;2024-01-16T02:31:46;12.85;;;8.63;;
17818;SDS011;9034;50.284;19.310;2024-01-16T02:32:48;14.18;;;9.43;;
17818;SDS011;9034;50.284;19.310;2024-01-16T02:33:51;14.10;;;9.95;;
17818;SDS011;9034;50.284;19.310;2024-01-16T02:34:53;14.70;;;9.98;;
17818;SDS011;9034;50.284;19.310;2024-01-16T02:35:56;16.55;;;10.27;;
17818;SDS011;9034;50.284;19.310;2024-01-16T02:36:58;14.85;;;9.98;;
17818;SDS011;9034;50.284;19.310;2024-01-16T02:38:00;14.02;;;9.77;;
17818;SDS011;9034;50.284;19.310;2024-01-16T02:39:04;15.95;;;10.18;;
17818;SDS011;9034;50.284;19.310;2024-01-16T02:40:08;13.48;;;9.45;;
17818;SDS011;9034;50.284;19.310;2024-01-16T02:41:13;13.35;;;8.68;;
17818;SDS011;9034;50.284;19.310;2024-01-16T02:42:15;15.43;;;9.75;;
17818;SDS011;9034;50.284;19.310;2024-01-16T02:43:18;12.35;;;9.52;;
17818;SDS011;9034;50.284;19.310;2024-01-16T02:44:19;15.18;;;9.30;;
17818;SDS011;9034;50.284;19.310;2024-01-16T02:45:21;15.30;;;9.05;;
17818;SDS011;9034;50.284;19.310;2024-01-16T02:46:24;15.90;;;10.27;;
17818;SDS011;9034;50.284;19.310;2024-01-16T02:47:26;14.23;;;9.65;;
17818;SDS011;9034;50.284;19.310;2024-01-16T02:48:29;13.32;;;9.55;;
17818;SDS011;9034;50.284;19.310;2024-01-16T02:49:32;14.73;;;9.82;;
17818;SDS011;9034;50.284;19.310;2024-01-16T02:50:35;17.15;;;9.60;;
17818;SDS011;9034;50.284;19.310;2024-01-16T02:51:37;15.10;;;9.45;;
17818;SDS011;9034;50.284;19.310;2024-01-16T02:52:39;15.65;;;9.68;;
17818;SDS011;9034;50.284;19.310;2024-01-16T02:53:42;12.90;;;9.68;;
17818;SDS011;9034;50.284;19.310;2024-01-16T02:54:45;14.10;;;9.63;;
17818;SDS011;9034;50.284;19.310;2024-01-16T02:55:48;11.18;;;8.55;;
17818;SDS011;9034;50.284;19.310;2024-01-16T02:56:50;17.75;;;10.32;;
17818;SDS011;9034;50.284;19.310;2024-01-16T02:57:53;13.38;;;9.02;;
17818;SDS011;9034;50.284;19.310;2024-01-16T02:58:55;14.52;;;9.80;;
17818;SDS011;9034;50.284;19.310;2024-01-16T02:59:58;15.10;;;10.35;;
17818;SDS011;9034;50.284;19.310;2024-01-16T03:01:00;14.02;;;9.50;;
17818;SDS011;9034;50.284;19.310;2024-01-16T03:02:03;13.80;;;9.35;;
17818;SDS011;9034;50.284;19.310;2024-01-16T03:03:05;14.35;;;9.50;;
17818;SDS011;9034;50.284;19.310;2024-01-16T03:04:09;12.73;;;9.20;;
17818;SDS011;9034;50.284;19.310;2024-01-16T03:05:11;12.02;;;9.20;;
17818;SDS011;9034;50.284;19.310;2024-01-16T03:06:22;12.73;;;8.68;;
17818;SDS011;9034;50.284;19.310;2024-01-16T03:07:25;13.68;;;9.48;;
17818;SDS011;9034;50.284;19.310;2024-01-16T03:08:28;12.18;;;9.15;;
17818;SDS011;9034;50.284;19.310;2024-01-16T03:09:29;11.93;;;8.73;;
17818;SDS011;9034;50.284;19.310;2024-01-16T03:10:34;13.07;;;9.45;;
17818;SDS011;9034;50.284;19.310;2024-01-16T03:11:36;12.63;;;9.55;;
17818;SDS011;9034;50.284;19.310;2024-01-16T03:12:38;14.85;;;10.40;;
17818;SDS011;9034;50.284;19.310;2024-01-16T03:13:41;14.35;;;9.68;;
17818;SDS011;9034;50.284;19.310;2024-01-16T03:14:42;16.75;;;10.48;;
17818;SDS011;9034;50.284;19.310;2024-01-16T03:15:46;13.35;;;9.13;;
17818;SDS011;9034;50.284;19.310;2024-01-16T03:16:48;13.98;;;9.20;;
17818;SDS011;9034;50.284;19.310;2024-01-16T03:17:51;14.23;;;9.23;;
17818;SDS011;9034;50.284;19.310;2024-01-16T03:18:53;11.90;;;8.75;;
17818;SDS011;9034;50.284;19.310;2024-01-16T03:19:56;9.25;;;7.18;;
17818;SDS011;9034;50.284;19.310;2024-01-16T03:20:58;9.70;;;6.45;;
17818;SDS011;9034;50.284;19.310;2024-01-16T03:22:01;9.45;;;6.18;;
17818;SDS011;9034;50.284;19.310;2024-01-16T03:23:05;9.02;;;6.70;;
17818;SDS011;9034;50.284;19.310;2024-01-16T03:24:08;4.65;;;3.92;;
17818;SDS011;9034;50.284;19.310;2024-01-16T03:25:12;2.90;;;2.53;;
17818;SDS011;9034;50.284;19.310;2024-01-16T03:26:16;2.58;;;2.33;;
17818;SDS011;9034;50.284;19.310;2024-01-16T03:27:18;3.72;;;3.22;;
17818;SDS011;9034;50.284;19.310;2024-01-16T03:28:21;5.65;;;4.38;;
17818;SDS011;9034;50.284;19.310;2024-01-16T03:29:23;4.32;;;3.92;;
17818;SDS011;9034;50.284;19.310;2024-01-16T03:30:25;6.70;;;4.53;;
17818;SDS011;9034;50.284;19.310;2024-01-16T03:31:29;6.82;;;5.03;;
17818;SDS011;9034;50.284;19.310;2024-01-16T03:32:31;8.48;;;5.90;;
17818;SDS011;9034;50.284;19.310;2024-01-16T03:33:34;9.15;;;5.93;;
17818;SDS011;9034;50.284;19.310;2024-01-16T03:34:36;6.65;;;5.50;;
17818;SDS011;9034;50.284;19.310;2024-01-16T03:35:39;5.20;;;3.58;;
17818;SDS011;9034;50.284;19.310;2024-01-16T03:36:41;4.80;;;4.13;;
17818;SDS011;9034;50.284;19.310;2024-01-16T03:37:44;2.72;;;2.47;;
17818;SDS011;9034;50.284;19.310;2024-01-16T03:38:46;3.45;;;3.15;;
17818;SDS011;9034;50.284;19.310;2024-01-16T03:39:49;2.67;;;2.40;;
17818;SDS011;9034;50.284;19.310;2024-01-16T03:40:51;8.05;;;4.82;;
17818;SDS011;9034;50.284;19.310;2024-01-16T03:41:55;23.92;;;14.40;;
17818;SDS011;9034;50.284;19.310;2024-01-16T03:42:58;5.50;;;4.22;;
17818;SDS011;9034;50.284;19.310;2024-01-16T03:44:01;13.77;;;10.95;;
17818;SDS011;9034;50.284;19.310;2024-01-16T03:45:03;5.18;;;4.05;;
17818;SDS011;9034;50.284;19.310;2024-01-16T03:46:10;3.70;;;3.40;;
17818;SDS011;9034;50.284;19.310;2024-01-16T03:47:12;5.50;;;4.70;;
17818;SDS011;9034;50.284;19.310;2024-01-16T03:48:15;4.97;;;4.47;;
17818;SDS011;9034;50.284;19.310;2024-01-16T03:49:17;4.35;;;4.00;;
17818;SDS011;9034;50.284;19.310;2024-01-16T03:50:20;5.63;;;4.72;;
17818;SDS011;9034;50.284;19.310;2024-01-16T03:51:22;8.38;;;6.25;;
17818;SDS011;9034;50.284;19.310;2024-01-16T03:52:24;8.05;;;4.75;;
17818;SDS011;9034;50.284;19.310;2024-01-16T03:53:27;2.70;;;2.38;;
17818;SDS011;9034;50.284;19.310;2024-01-16T03:54:29;19.50;;;12.30;;
17818;SDS011;9034;50.284;19.310;2024-01-16T03:55:31;3.80;;;1.92;;
17818;SDS011;9034;50.284;19.310;2024-01-16T03:56:34;11.95;;;5.53;;
17818;SDS011;9034;50.284;19.310;2024-01-16T03:57:37;6.70;;;4.45;;
17818;SDS011;9034;50.284;19.310;2024-01-16T03:58:39;7.20;;;4.30;;
17818;SDS011;9034;50.284;19.310;2024-01-16T03:59:43;6.90;;;3.65;;
17818;SDS011;9034;50.284;19.310;2024-01-16T04:00:45;42.17;;;18.02;;
17818;SDS011;9034;50.284;19.310;2024-01-16T04:01:48;7.00;;;3.30;;
17818;SDS011;9034;50.284;19.310;2024-01-16T04:02:51;3.40;;;2.05;;
17818;SDS011;9034;50.284;19.310;2024-01-16T04:03:53;1.70;;;1.60;;
17818;SDS011;9034;50.284;19.310;2024-01-16T04:04:56;7.97;;;6.68;;
17818;SDS011;9034;50.284;19.310;2024-01-16T04:05:58;6.55;;;4.75;;
17818;SDS011;9034;50.284;19.310;2024-01-16T04:07:01;1.48;;;1.38;;
17818;SDS011;9034;50.284;19.310;2024-01-16T04:08:03;2.95;;;2.65;;
17818;SDS011;9034;50.284;19.310;2024-01-16T04:09:07;3.08;;;2.78;;
17818;SDS011;9034;50.284;19.310;2024-01-16T04:10:09;1.70;;;1.60;;
17818;SDS011;9034;50.284;19.310;2024-01-16T04:11:12;5.95;;;4.22;;
17818;SDS011;9034;50.284;19.310;2024-01-16T04:12:15;1.92;;;1.65;;
17818;SDS011;9034;50.284;19.310;2024-01-16T04:13:19;5.47;;;3.25;;
17818;SDS011;9034;50.284;19.310;2024-01-16T04:14:21;2.63;;;2.28;;
17818;SDS011;9034;50.284;19.310;2024-01-16T04:15:24;3.58;;;2.63;;
17818;SDS011;9034;50.284;19.310;2024-01-16T04:16:26;3.55;;;2.50;;
17818;SDS011;9034;50.284;19.310;2024-01-16T04:17:29;1.85;;;1.58;;
17818;SDS011;9034;50.284;19.310;2024-01-16T04:18:32;1.83;;;1.65;;
17818;SDS011;9034;50.284;19.310;2024-01-16T04:19:38;1.33;;;1.23;;
17818;SDS011;9034;50.284;19.310;2024-01-16T04:20:40;3.63;;;2.35;;
17818;SDS011;9034;50.284;19.310;2024-01-16T04:21:44;11.90;;;8.40;;
17818;SDS011;9034;50.284;19.310;2024-01-16T04:22:45;8.88;;;6.13;;
17818;SDS011;9034;50.284;19.310;2024-01-16T04:23:48;11.45;;;7.20;;
17818;SDS011;9034;50.284;19.310;2024-01-16T04:24:50;13.23;;;8.13;;
17818;SDS011;9034;50.284;19.310;2024-01-16T04:25:54;6.13;;;3.40;;
17818;SDS011;9034;50.284;19.310;2024-01-16T04:26:56;2.00;;;1.85;;
17818;SDS011;9034;50.284;19.310;2024-01-16T04:27:59;2.75;;;2.35;;
17818;SDS011;9034;50.284;19.310;2024-01-16T04:29:05;3.17;;;2.83;;
17818;SDS011;9034;50.284;19.310;2024-01-16T04:30:08;1.55;;;1.45;;
17818;SDS011;9034;50.284;19.310;2024-01-16T04:31:10;11.63;;;9.32;;
17818;SDS011;9034;50.284;19.310;2024-01-16T04:32:14;16.40;;;11.18;;
17818;SDS011;9034;50.284;19.310;2024-01-16T04:33:16;4.70;;;3.95;;
17818;SDS011;9034;50.284;19.310;2024-01-16T04:34:19;13.32;;;10.45;;
17818;SDS011;9034;50.284;19.310;2024-01-16T04:35:21;2.20;;;2.00;;
17818;SDS011;9034;50.284;19.310;2024-01-16T04:36:24;2.50;;;2.30;;
17818;SDS011;9034;50.284;19.310;2024-01-16T04:37:27;3.60;;;2.65;;
17818;SDS011;9034;50.284;19.310;2024-01-16T04:38:29;4.60;;;3.75;;
17818;SDS011;9034;50.284;19.310;2024-01-16T04:39:32;1.50;;;1.40;;
17818;SDS011;9034;50.284;19.310;2024-01-16T04:40:34;3.53;;;2.80;;
17818;SDS011;9034;50.284;19.310;2024-01-16T04:41:37;1.85;;;1.30;;
17818;SDS011;9034;50.284;19.310;2024-01-16T04:42:39;3.90;;;3.17;;
17818;SDS011;9034;50.284;19.310;2024-01-16T04:43:43;2.80;;;2.10;;
17818;SDS011;9034;50.284;19.310;2024-01-16T04:44:47;3.50;;;3.20;;
17818;SDS011;9034;50.284;19.310;2024-01-16T04:45:50;2.42;;;1.48;;
17818;SDS011;9034;50.284;19.310;2024-01-16T04:46:52;6.28;;;3.47;;
17818;SDS011;9034;50.284;19.310;2024-01-16T04:47:55;5.07;;;3.60;;
17818;SDS011;9034;50.284;19.310;2024-01-16T04:48:57;1.98;;;1.67;;
17818;SDS011;9034;50.284;19.310;2024-01-16T04:50:00;1.20;;;1.10;;
17818;SDS011;9034;50.284;19.310;2024-01-16T04:51:02;1.55;;;0.90;;
17818;SDS011;9034;50.284;19.310;2024-01-16T04:52:05;2.90;;;2.35;;
17818;SDS011;9034;50.284;19.310;2024-01-16T04:53:09;1.35;;;1.25;;
17818;SDS011;9034;50.284;19.310;2024-01-16T04:54:12;2.95;;;2.60;;
17818;SDS011;9034;50.284;19.310;2024-01-16T04:55:14;7.50;;;3.65;;
17818;SDS011;9034;50.284;19.310;2024-01-16T04:56:17;4.10;;;2.00;;
17818;SDS011;9034;50.284;19.310;2024-01-16T04:57:19;0.88;;;0.88;;
17818;SDS011;9034;50.284;19.310;2024-01-16T04:58:22;3.53;;;2.15;;
17818;SDS011;9034;50.284;19.310;2024-01-16T04:59:23;1.65;;;1.30;;
17818;SDS011;9034;50.284;19.310;2024-01-16T05:00:28;1.23;;;1.13;;
17818;SDS011;9034;50.284;19.310;2024-01-16T05:01:30;3.78;;;2.17;;
17818;SDS011;9034;50.284;19.310;2024-01-16T05:02:33;2.17;;;1.98;;
17818;SDS011;9034;50.284;19.310;2024-01-16T05:03:35;1.55;;;1.17;;
17818;SDS011;9034;50.284;19.310;2024-01-16T05:04:38;2.15;;;1.33;;
17818;SDS011;9034;50.284;19.310;2024-01-16T05:05:40;1.30;;;0.90;;
17818;SDS011;9034;50.284;19.310;2024-01-16T05:06:43;0.35;;;0.35;;
17818;SDS011;9034;50.284;19.310;2024-01-16T05:07:46;3.58;;;2.20;;
17818;SDS011;9034;50.284;19.310;2024-01-16T05:08:48;2.20;;;2.00;;
17818;SDS011;9034;50.284;19.310;2024-01-16T05:09:51;2.50;;;2.30;;
17818;SDS011;9034;50.284;19.310;2024-01-16T05:10:53;2.03;;;1.88;;
17818;SDS011;9034;50.284;19.310;2024-01-16T05:11:56;0.80;;;0.80;;
17818;SDS011;9034;50.284;19.310;2024-01-16T05:12:58;1.42;;;1.30;;
17818;SDS011;9034;50.284;19.310;2024-01-16T05:14:00;3.25;;;2.50;;
17818;SDS011;9034;50.284;19.310;2024-01-16T05:15:03;2.75;;;1.90;;
17818;SDS011;9034;50.284;19.310;2024-01-16T05:16:07;2.40;;;1.63;;
17818;SDS011;9034;50.284;19.310;2024-01-16T05:17:09;0.80;;;0.80;;
17818;SDS011;9034;50.284;19.310;2024-01-16T05:18:14;7.55;;;3.13;;
17818;SDS011;9034;50.284;19.310;2024-01-16T05:19:16;1.27;;;1.17;;
17818;SDS011;9034;50.284;19.310;2024-01-16T05:20:19;1.13;;;1.02;;
17818;SDS011;9034;50.284;19.310;2024-01-16T05:21:21;1.45;;;1.35;;
17818;SDS011;9034;50.284;19.310;2024-01-16T05:22:24;4.85;;;3.08;;
17818;SDS011;9034;50.284;19.310;2024-01-16T05:23:26;4.97;;;3.13;;
17818;SDS011;9034;50.284;19.310;2024-01-16T05:24:29;3.28;;;2.25;;
17818;SDS011;9034;50.284;19.310;2024-01-16T05:25:31;1.38;;;1.27;;
17818;SDS011;9034;50.284;19.310;2024-01-16T05:26:34;2.38;;;1.77;;
17818;SDS011;9034;50.284;19.310;2024-01-16T05:27:36;2.33;;;1.90;;
17818;SDS011;9034;50.284;19.310;2024-01-16T05:28:39;0.82;;;0.82;;
17818;SDS011;9034;50.284;19.310;2024-01-16T05:29:41;0.70;;;0.70;;
17818;SDS011;9034;50.284;19.310;2024-01-16T05:30:45;1.08;;;0.98;;
17818;SDS011;9034;50.284;19.310;2024-01-16T05:31:49;1.33;;;1.25;;
17818;SDS011;9034;50.284;19.310;2024-01-16T05:32:51;1.02;;;0.63;;
17818;SDS011;9034;50.284;19.310;2024-01-16T05:33:55;0.95;;;0.95;;
17818;SDS011;9034;50.284;19.310;2024-01-16T05:34:57;1.17;;;1.10;;
17818;SDS011;9034;50.284;19.310;2024-01-16T05:36:00;3.20;;;2.55;;
17818;SDS011;9034;50.284;19.310;2024-01-16T05:37:02;0.73;;;0.73;;
17818;SDS011;9034;50.284;19.310;2024-01-16T05:38:05;1.48;;;1.17;;
17818;SDS011;9034;50.284;19.310;2024-01-16T05:39:08;5.90;;;3.80;;
17818;SDS011;9034;50.284;19.310;2024-01-16T05:40:11;4.88;;;3.30;;
17818;SDS011;9034;50.284;19.310;2024-01-16T05:41:13;1.10;;;1.10;;
17818;SDS011;9034;50.284;19.310;2024-01-16T05:42:17;1.00;;;1.00;;
17818;SDS011;9034;50.284;19.310;2024-01-16T05:43:19;1.90;;;1.77;;
17818;SDS011;9034;50.284;19.310;2024-01-16T05:44:21;5.15;;;4.38;;
17818;SDS011;9034;50.284;19.310;2024-01-16T05:45:23;1.52;;;1.42;;
17818;SDS011;9034;50.284;19.310;2024-01-16T05:46:26;7.15;;;6.22;;
17818;SDS011;9034;50.284;19.310;2024-01-16T05:47:30;2.20;;;2.00;;
17818;SDS011;9034;50.284;19.310;2024-01-16T05:48:33;8.55;;;7.50;;
17818;SDS011;9034;50.284;19.310;2024-01-16T05:49:35;3.58;;;3.28;;
17818;SDS011;9034;50.284;19.310;2024-01-16T05:50:38;4.95;;;4.55;;
17818;SDS011;9034;50.284;19.310;2024-01-16T05:51:40;2.30;;;2.10;;
17818;SDS011;9034;50.284;19.310;2024-01-16T05:52:43;14.88;;;13.45;;
17818;SDS011;9034;50.284;19.310;2024-01-16T05:53:47;1.50;;;1.40;;
17818;SDS011;9034;50.284;19.310;2024-01-16T05:54:50;4.70;;;3.90;;
17818;SDS011;9034;50.284;19.310;2024-01-16T05:55:52;3.42;;;2.33;;
17818;SDS011;9034;50.284;19.310;2024-01-16T05:56:56;2.05;;;1.90;;
17818;SDS011;9034;50.284;19.310;2024-01-16T05:57:57;7.88;;;5.65;;
17818;SDS011;9034;50.284;19.310;2024-01-16T05:59:01;4.25;;;3.83;;
17818;SDS011;9034;50.284;19.310;2024-01-16T06:00:04;3.80;;;3.40;;
17818;SDS011;9034;50.284;19.310;2024-01-16T06:01:07;1.27;;;1.20;;
17818;SDS011;9034;50.284;19.310;2024-01-16T06:02:10;3.05;;;2.67;;
17818;SDS011;9034;50.284;19.310;2024-01-16T06:03:14;1.90;;;1.80;;
17818;SDS011;9034;50.284;19.310;2024-01-16T06:04:16;2.33;;;2.13;;
17818;SDS011;9034;50.284;19.310;2024-01-16T06:05:18;2.55;;;2.10;;
17818;SDS011;9034;50.284;19.310;2024-01-16T06:06:21;1.30;;;1.20;;
17818;SDS011;9034;50.284;19.310;2024-01-16T06:07:23;6.18;;;4.00;;
17818;SDS011;9034;50.284;19.310;2024-01-16T06:08:27;2.72;;;2.50;;
17818;SDS011;9034;50.284;19.310;2024-01-16T06:09:29;3.28;;;2.25;;
17818;SDS011;9034;50.284;19.310;2024-01-16T06:10:33;1.48;;;1.27;;
17818;SDS011;9034;50.284;19.310;2024-01-16T06:11:35;5.65;;;2.85;;
17818;SDS011;9034;50.284;19.310;2024-01-16T06:12:38;5.07;;;3.50;;
17818;SDS011;9034;50.284;19.310;2024-01-16T06:13:41;3.40;;;2.65;;
17818;SDS011;9034;50.284;19.310;2024-01-16T06:14:43;1.42;;;1.33;;